createdAt,value
2019-03-22T00:01:53.325Z,8.00
2019-03-22T00:04:24.978Z,8.10
2019-03-22T00:06:56.825Z,8.00
2019-03-22T00:09:28.476Z,7.90
2019-03-22T00:11:59.978Z,7.90
2019-03-22T00:14:31.566Z,8.00
2019-03-22T00:17:03.069Z,8.00
2019-03-22T00:19:34.565Z,8.10
2019-03-22T00:22:06.196Z,8.00
2019-03-22T00:24:38.089Z,8.10
2019-03-22T00:27:16.388Z,8.00
2019-03-22T00:29:42.868Z,8.00
2019-03-22T00:32:14.440Z,7.90
2019-03-22T00:34:46.055Z,7.90
2019-03-22T00:37:18.076Z,7.90
2019-03-22T00:39:49.669Z,7.60
2019-03-22T00:42:21.587Z,7.40
2019-03-22T00:44:53.167Z,7.30
2019-03-22T00:47:25.022Z,7.50
2019-03-22T00:49:56.686Z,7.50
2019-03-22T00:52:28.619Z,7.40
2019-03-22T00:55:00.268Z,7.40
2019-03-22T00:57:31.871Z,7.50
2019-03-22T01:00:03.543Z,7.50
2019-03-22T01:02:35.129Z,7.50
2019-03-22T01:05:08.446Z,7.50
2019-03-22T01:07:40.100Z,7.50
2019-03-22T01:10:12.893Z,7.50
2019-03-22T01:12:44.813Z,7.50
2019-03-22T01:15:16.775Z,7.50
2019-03-22T01:17:48.358Z,7.40
2019-03-22T01:20:19.950Z,7.30
2019-03-22T01:22:51.541Z,7.30
2019-03-22T01:25:23.119Z,7.30
2019-03-22T01:27:54.709Z,7.30
2019-03-22T01:30:26.307Z,7.30
2019-03-22T01:32:57.879Z,7.30
2019-03-22T01:35:29.811Z,7.30
2019-03-22T01:38:01.321Z,7.40
2019-03-22T01:40:33.185Z,7.30
2019-03-22T01:43:04.787Z,7.30
2019-03-22T01:45:36.462Z,7.20
2019-03-22T01:48:08.144Z,7.20
2019-03-22T01:50:39.718Z,7.20
2019-03-22T01:53:11.288Z,7.20
2019-03-22T01:55:43.168Z,7.20
2019-03-22T01:58:14.680Z,7.20
2019-03-22T02:00:46.646Z,7.30
2019-03-22T02:03:18.255Z,7.20
2019-03-22T02:05:49.898Z,7.10
2019-03-22T02:08:22.468Z,7.00
2019-03-22T02:10:54.061Z,6.60
2019-03-22T02:13:25.546Z,6.50
2019-03-22T02:15:57.479Z,6.50
2019-03-22T02:18:29.058Z,6.30
2019-03-22T02:21:01.328Z,6.20
2019-03-22T02:23:33.287Z,6.20
2019-03-22T02:26:05.270Z,6.10
2019-03-22T02:28:36.855Z,6.20
2019-03-22T02:31:08.800Z,6.30
2019-03-22T02:33:40.450Z,6.40
2019-03-22T02:36:12.068Z,6.40
2019-03-22T02:38:44.232Z,6.50
2019-03-22T02:41:15.825Z,6.50
2019-03-22T02:43:47.403Z,6.20
2019-03-22T02:46:19.063Z,6.20
2019-03-22T02:48:50.647Z,6.30
2019-03-22T02:51:22.407Z,6.40
2019-03-22T02:53:54.086Z,6.40
2019-03-22T02:56:25.746Z,6.40
2019-03-22T02:58:59.375Z,6.40
2019-03-22T03:01:31.617Z,6.40
2019-03-22T03:04:03.199Z,6.40
2019-03-22T03:06:34.791Z,6.40
2019-03-22T03:09:07.629Z,6.30
2019-03-22T03:11:39.269Z,6.30
2019-03-22T03:14:10.863Z,6.30
2019-03-22T03:16:42.410Z,6.10
2019-03-22T03:19:14.726Z,5.90
2019-03-22T03:21:46.285Z,5.80
2019-03-22T03:24:18.280Z,6.00
2019-03-22T03:26:49.863Z,6.10
2019-03-22T03:29:21.446Z,5.90
2019-03-22T03:31:53.038Z,5.70
2019-03-22T03:34:24.667Z,5.80
2019-03-22T03:36:56.671Z,5.90
2019-03-22T03:39:28.653Z,6.00
2019-03-22T03:42:01.015Z,5.90
2019-03-22T03:44:33.442Z,5.80
2019-03-22T03:47:04.989Z,5.90
2019-03-22T03:49:36.587Z,5.80
2019-03-22T03:52:08.079Z,5.90
2019-03-22T03:54:39.623Z,5.90
2019-03-22T03:57:11.205Z,6.00
2019-03-22T03:59:42.850Z,6.00
2019-03-22T04:02:14.514Z,5.70
2019-03-22T04:04:46.442Z,5.60
2019-03-22T04:07:18.083Z,5.50
2019-03-22T04:09:50.814Z,5.50
2019-03-22T04:12:22.818Z,5.50
2019-03-22T04:14:54.382Z,5.30
2019-03-22T04:17:25.950Z,5.10
2019-03-22T04:19:58.001Z,5.00
2019-03-22T04:22:29.944Z,4.90
2019-03-22T04:25:02.252Z,4.70
2019-03-22T04:27:34.269Z,4.60
2019-03-22T04:30:06.372Z,4.50
2019-03-22T04:32:38.342Z,4.50
2019-03-22T04:35:10.625Z,4.70
2019-03-22T04:37:42.534Z,4.90
2019-03-22T04:40:32.724Z,5.00
2019-03-22T04:43:04.605Z,4.90
2019-03-22T04:45:37.508Z,4.70
2019-03-22T04:48:20.979Z,4.90
2019-03-22T04:50:55.147Z,5.10
2019-03-22T04:53:29.336Z,5.20
2019-03-22T04:56:04.895Z,5.20
2019-03-22T04:58:38.541Z,5.10
2019-03-22T05:01:12.037Z,5.10
2019-03-22T05:03:44.339Z,5.20
2019-03-22T05:06:17.180Z,5.20
2019-03-22T05:08:50.413Z,5.30
2019-03-22T05:11:23.935Z,5.30
2019-03-22T05:14:06.827Z,5.20
2019-03-22T05:16:42.506Z,5.10
2019-03-22T05:19:15.057Z,5.10
2019-03-22T05:21:47.223Z,5.20
2019-03-22T05:24:19.522Z,5.30
2019-03-22T05:26:51.953Z,5.20
2019-03-22T05:29:30.663Z,5.20
2019-03-22T05:32:10.291Z,5.10
2019-03-22T05:34:42.620Z,5.10
2019-03-22T05:37:14.294Z,5.00
2019-03-22T05:39:46.334Z,5.10
2019-03-22T05:42:18.279Z,5.10
2019-03-22T05:44:49.926Z,5.10
2019-03-22T05:47:21.846Z,5.20
2019-03-22T05:49:53.373Z,5.10
2019-03-22T05:52:25.024Z,5.10
2019-03-22T05:54:56.581Z,5.00
2019-03-22T05:57:28.121Z,5.10
2019-03-22T05:59:59.775Z,5.10
2019-03-22T06:02:32.045Z,5.10
2019-03-22T06:05:03.623Z,5.20
2019-03-22T06:07:37.102Z,5.20
2019-03-22T06:10:08.891Z,5.20
2019-03-22T06:12:41.045Z,5.20
2019-03-22T06:15:13.098Z,5.20
2019-03-22T06:17:51.695Z,5.20
2019-03-22T06:20:19.446Z,5.20
2019-03-22T06:22:51.328Z,5.20
2019-03-22T06:25:23.000Z,5.10
2019-03-22T06:27:54.944Z,5.10
2019-03-22T06:30:26.536Z,5.10
2019-03-22T06:32:58.215Z,5.10
2019-03-22T06:35:29.802Z,5.20
2019-03-22T06:38:01.332Z,5.10
2019-03-22T06:40:33.314Z,5.00
2019-03-22T06:43:05.540Z,4.90
2019-03-22T06:45:37.466Z,5.00
2019-03-22T06:48:09.496Z,4.90
2019-03-22T06:50:41.052Z,4.90
2019-03-22T06:53:13.087Z,5.00
2019-03-22T06:55:45.348Z,5.20
2019-03-22T06:58:16.961Z,5.30
2019-03-22T07:00:48.525Z,5.30
2019-03-22T07:03:21.176Z,5.40
2019-03-22T07:05:53.162Z,5.30
2019-03-22T07:08:24.678Z,5.30
2019-03-22T07:10:56.564Z,5.40
2019-03-22T07:13:28.082Z,5.50
2019-03-22T07:16:00.059Z,5.60
2019-03-22T07:18:31.568Z,5.70
2019-03-22T07:21:03.133Z,5.80
2019-03-22T07:23:35.056Z,5.90
2019-03-22T07:26:06.744Z,6.00
2019-03-22T07:28:39.055Z,5.90
2019-03-22T07:31:11.102Z,5.80
2019-03-22T07:33:42.665Z,5.90
2019-03-22T07:36:14.617Z,6.10
2019-03-22T07:38:46.637Z,6.20
2019-03-22T07:41:18.201Z,6.10
2019-03-22T07:43:49.792Z,6.10
2019-03-22T07:46:22.470Z,6.00
2019-03-22T07:48:54.077Z,6.10
2019-03-22T07:51:25.967Z,6.20
2019-03-22T07:53:58.182Z,6.30
2019-03-22T07:56:30.083Z,6.20
2019-03-22T07:59:01.735Z,6.20
2019-03-22T08:01:44.567Z,6.40
2019-03-22T08:04:16.537Z,6.60
2019-03-22T08:06:48.607Z,6.60
2019-03-22T08:09:20.159Z,6.80
2019-03-22T08:11:52.116Z,6.90
2019-03-22T08:14:23.794Z,7.10
2019-03-22T08:16:55.801Z,7.30
2019-03-22T08:19:27.280Z,7.50
2019-03-22T08:21:59.286Z,7.60
2019-03-22T08:24:30.935Z,7.80
2019-03-22T08:27:02.762Z,7.90
2019-03-22T08:29:34.418Z,8.00
2019-03-22T08:32:06.335Z,8.10
2019-03-22T08:34:38.012Z,8.40
2019-03-22T08:37:10.084Z,8.60
2019-03-22T08:39:42.069Z,8.70
2019-03-22T08:42:14.021Z,8.80
2019-03-22T08:44:47.719Z,9.00
2019-03-22T08:47:19.358Z,9.30
2019-03-22T08:49:51.055Z,9.40
2019-03-22T08:52:22.973Z,9.60
2019-03-22T08:54:54.651Z,9.60
2019-03-22T08:57:26.298Z,9.90
2019-03-22T08:59:57.893Z,10.10
2019-03-22T09:02:29.604Z,10.40
2019-03-22T09:05:01.564Z,10.60
2019-03-22T09:07:33.162Z,10.70
2019-03-22T09:10:06.518Z,10.90
2019-03-22T09:12:38.473Z,11.00
2019-03-22T09:15:10.187Z,11.20
2019-03-22T09:17:41.773Z,11.40
2019-03-22T09:20:13.927Z,11.60
2019-03-22T09:22:45.610Z,11.80
2019-03-22T09:25:17.154Z,12.10
2019-03-22T09:27:48.827Z,12.60
2019-03-22T09:30:20.462Z,12.60
2019-03-22T09:32:52.116Z,12.90
2019-03-22T09:35:23.681Z,13.20
2019-03-22T09:37:55.282Z,13.30
2019-03-22T09:40:26.896Z,13.70
2019-03-22T09:42:58.834Z,14.20
2019-03-22T09:45:30.441Z,14.70
2019-03-22T09:48:06.096Z,15.00
2019-03-22T09:50:37.435Z,15.10
2019-03-22T09:53:09.083Z,15.00
2019-03-22T09:55:40.729Z,15.30
2019-03-22T09:58:12.318Z,15.70
2019-03-22T10:00:44.344Z,16.00
2019-03-22T10:05:46.739Z,16.00
2019-03-22T10:08:18.379Z,16.20
2019-03-22T10:10:50.101Z,16.40
2019-03-22T10:13:21.706Z,17.00
2019-03-22T10:15:53.425Z,17.10
2019-03-22T10:18:25.456Z,17.00
2019-03-22T10:20:57.409Z,16.90
2019-03-22T10:23:30.325Z,17.30
2019-03-22T10:26:02.028Z,17.30
2019-03-22T10:28:33.752Z,17.70
2019-03-22T10:31:05.790Z,18.10
2019-03-22T10:33:37.379Z,17.50
2019-03-22T10:36:08.971Z,17.40
2019-03-22T10:38:40.642Z,18.30
2019-03-22T10:41:12.284Z,18.90
2019-03-22T10:43:43.905Z,19.40
2019-03-22T10:46:15.852Z,19.20
2019-03-22T10:48:47.462Z,19.30
2019-03-22T10:51:21.549Z,19.50
2019-03-22T10:53:53.069Z,18.30
2019-03-22T10:56:25.134Z,19.00
2019-03-22T10:58:56.955Z,19.50
2019-03-22T11:01:28.545Z,20.20
2019-03-22T11:04:00.639Z,20.50
2019-03-22T11:06:32.851Z,20.40
2019-03-22T11:09:05.869Z,20.50
2019-03-22T11:11:37.896Z,21.00
2019-03-22T11:14:09.859Z,20.70
2019-03-22T11:16:41.896Z,20.30
2019-03-22T11:19:13.862Z,20.70
2019-03-22T11:21:45.524Z,21.20
2019-03-22T11:24:17.224Z,21.80
2019-03-22T11:26:49.114Z,21.80
2019-03-22T11:29:20.708Z,21.00
2019-03-22T11:31:52.664Z,20.90
2019-03-22T11:34:24.179Z,21.10
2019-03-22T11:36:55.765Z,21.00
2019-03-22T11:39:27.635Z,20.50
2019-03-22T11:41:59.874Z,20.60
2019-03-22T11:44:31.754Z,20.80
2019-03-22T11:47:04.650Z,21.70
2019-03-22T11:49:36.150Z,21.00
2019-03-22T11:52:07.857Z,20.50
2019-03-22T11:54:39.804Z,21.40
2019-03-22T11:57:11.750Z,21.50
2019-03-22T11:59:43.670Z,21.30
2019-03-22T12:02:22.086Z,20.40
2019-03-22T12:04:48.533Z,20.30
2019-03-22T12:07:31.686Z,20.40
2019-03-22T12:10:03.658Z,20.20
2019-03-22T12:12:35.627Z,20.30
2019-03-22T12:15:08.688Z,19.40
2019-03-22T12:17:40.338Z,18.90
2019-03-22T12:20:14.130Z,18.90
2019-03-22T12:22:45.719Z,18.70
2019-03-22T12:25:17.928Z,18.80
2019-03-22T12:27:50.760Z,18.80
2019-03-22T12:30:22.810Z,18.80
2019-03-22T12:32:54.792Z,18.50
2019-03-22T12:35:26.333Z,18.40
2019-03-22T12:37:57.955Z,18.40
2019-03-22T12:40:29.577Z,18.60
2019-03-22T12:43:01.146Z,18.70
2019-03-22T12:45:34.323Z,18.40
2019-03-22T12:48:06.467Z,18.60
2019-03-22T12:50:38.055Z,18.30
2019-03-22T12:53:09.989Z,18.40
2019-03-22T12:55:41.839Z,18.50
2019-03-22T12:58:13.425Z,18.40
2019-03-22T13:00:45.320Z,18.10
2019-03-22T13:03:16.852Z,18.40
2019-03-22T13:05:48.463Z,18.40
2019-03-22T13:08:20.729Z,18.40
2019-03-22T13:10:52.389Z,18.50
2019-03-22T13:13:24.410Z,18.70
2019-03-22T13:15:56.069Z,18.80
2019-03-22T13:18:27.643Z,18.80
2019-03-22T13:20:59.232Z,18.90
2019-03-22T13:23:31.046Z,18.90
2019-03-22T13:26:03.202Z,19.00
2019-03-22T13:28:34.781Z,18.70
2019-03-22T13:31:06.387Z,18.60
2019-03-22T13:33:38.387Z,18.60
2019-03-22T13:36:10.665Z,18.70
2019-03-22T13:38:42.697Z,18.70
2019-03-22T13:41:14.796Z,18.50
2019-03-22T13:43:46.371Z,18.60
2019-03-22T13:46:18.269Z,18.80
2019-03-22T13:48:50.159Z,18.80
2019-03-22T13:51:21.825Z,18.90
2019-03-22T13:53:53.777Z,18.80
2019-03-22T13:56:25.390Z,18.80
2019-03-22T13:58:56.955Z,18.80
2019-03-22T14:01:28.920Z,18.90
2019-03-22T14:04:00.799Z,19.00
2019-03-22T14:06:32.389Z,19.10
2019-03-22T14:09:05.685Z,19.00
2019-03-22T14:11:37.286Z,19.00
2019-03-22T14:14:09.321Z,18.80
2019-03-22T14:16:41.253Z,18.80
2019-03-22T14:19:12.784Z,18.70
2019-03-22T14:21:44.403Z,18.70
2019-03-22T14:24:17.054Z,18.90
2019-03-22T14:26:49.071Z,18.80
2019-03-22T14:29:20.729Z,18.90
2019-03-22T14:31:52.256Z,19.00
2019-03-22T14:34:24.737Z,18.90
2019-03-22T14:36:56.678Z,18.70
2019-03-22T14:39:28.244Z,18.60
2019-03-22T14:41:59.856Z,18.50
2019-03-22T14:44:31.434Z,18.70
2019-03-22T14:47:03.286Z,18.90
2019-03-22T14:49:34.904Z,18.90
2019-03-22T14:52:06.734Z,19.00
2019-03-22T14:54:38.252Z,18.80
2019-03-22T14:57:09.919Z,18.80
2019-03-22T14:59:41.822Z,18.90
2019-03-22T15:02:13.396Z,18.80
2019-03-22T15:04:44.988Z,19.10
2019-03-22T15:07:20.041Z,18.90
2019-03-22T15:09:50.125Z,18.80
2019-03-22T15:12:22.120Z,19.00
2019-03-22T15:15:06.107Z,19.10
2019-03-22T15:17:47.688Z,19.10
2019-03-22T15:20:50.782Z,19.10
2019-03-22T15:24:03.457Z,19.00
2019-03-22T15:26:50.802Z,19.00
2019-03-22T15:29:59.768Z,18.90
2019-03-22T15:32:50.211Z,18.90
2019-03-22T15:35:39.788Z,18.90
2019-03-22T15:38:29.657Z,18.80
2019-03-22T15:41:01.871Z,18.80
2019-03-22T15:43:33.554Z,18.80
2019-03-22T15:46:05.219Z,18.90
2019-03-22T15:48:37.227Z,18.90
2019-03-22T15:51:09.148Z,18.80
2019-03-22T15:53:40.730Z,18.80
2019-03-22T15:56:12.351Z,18.70
2019-03-22T15:58:43.949Z,18.80
2019-03-22T16:01:15.563Z,18.90
2019-03-22T16:03:47.173Z,18.90
2019-03-22T16:06:19.502Z,18.90
2019-03-22T16:08:51.051Z,18.80
2019-03-22T16:11:22.631Z,18.80
2019-03-22T16:13:54.262Z,18.90
2019-03-22T16:16:25.855Z,18.90
2019-03-22T16:18:57.661Z,18.80
2019-03-22T16:21:29.302Z,18.80
2019-03-22T16:24:01.278Z,18.70
2019-03-22T16:26:32.948Z,18.60
2019-03-22T16:29:05.091Z,18.60
2019-03-22T16:31:36.734Z,18.60
2019-03-22T16:34:09.033Z,18.50
2019-03-22T16:36:40.624Z,18.40
2019-03-22T16:39:12.206Z,18.40
2019-03-22T16:41:43.827Z,18.30
2019-03-22T16:44:15.445Z,18.30
2019-03-22T16:46:47.012Z,18.20
2019-03-22T16:49:19.030Z,18.20
2019-03-22T16:51:50.634Z,18.00
2019-03-22T16:54:22.772Z,18.00
2019-03-22T16:56:54.736Z,17.90
2019-03-22T16:59:26.325Z,17.90
2019-03-22T17:01:58.281Z,17.80
2019-03-22T17:04:30.212Z,17.80
2019-03-22T17:07:01.923Z,17.80
2019-03-22T17:09:33.595Z,17.70
2019-03-22T17:12:05.286Z,17.60
2019-03-22T17:14:37.216Z,17.60
2019-03-22T17:17:08.895Z,17.60
2019-03-22T17:19:40.550Z,17.50
2019-03-22T17:22:12.100Z,17.40
2019-03-22T17:24:43.725Z,17.30
2019-03-22T17:27:15.611Z,17.20
2019-03-22T17:29:47.779Z,17.30
2019-03-22T17:32:19.744Z,17.20
2019-03-22T17:34:51.449Z,17.10
2019-03-22T17:37:23.467Z,17.00
2019-03-22T17:39:55.120Z,16.90
2019-03-22T17:42:27.049Z,16.90
2019-03-22T17:44:59.009Z,16.90
2019-03-22T17:47:30.982Z,16.80
2019-03-22T17:50:02.630Z,16.80
2019-03-22T17:52:34.278Z,16.60
2019-03-22T17:55:07.193Z,16.50
2019-03-22T17:57:38.783Z,16.30
2019-03-22T18:00:10.908Z,16.20
2019-03-22T18:02:43.177Z,16.10
2019-03-22T18:05:15.142Z,15.90
2019-03-22T18:07:47.000Z,15.90
2019-03-22T18:10:18.582Z,16.00
2019-03-22T18:12:50.108Z,15.90
2019-03-22T18:15:22.066Z,15.80
2019-03-22T18:17:53.658Z,15.80
2019-03-22T18:20:25.493Z,15.70
2019-03-22T18:22:57.532Z,15.70
2019-03-22T18:25:29.121Z,15.60
2019-03-22T18:28:00.784Z,15.40
2019-03-22T18:30:32.670Z,15.30
2019-03-22T18:33:04.336Z,15.30
2019-03-22T18:35:36.294Z,15.20
2019-03-22T18:38:08.048Z,15.00
2019-03-22T18:40:39.606Z,14.90
2019-03-22T18:43:11.232Z,14.60
2019-03-22T18:45:42.800Z,14.50
2019-03-22T18:48:14.823Z,14.40
2019-03-22T18:50:56.068Z,14.50
2019-03-22T18:53:19.953Z,14.50
2019-03-22T18:55:52.832Z,14.50
2019-03-22T18:58:24.488Z,14.40
2019-03-22T19:00:56.413Z,14.40
2019-03-22T19:03:27.954Z,14.50
2019-03-22T19:05:59.650Z,14.50
2019-03-22T19:08:31.689Z,14.40
2019-03-22T19:11:03.299Z,14.40
2019-03-22T19:13:34.899Z,14.40
2019-03-22T19:16:06.485Z,14.30
2019-03-22T19:18:38.008Z,14.30
2019-03-22T19:21:10.680Z,14.20
2019-03-22T19:23:42.341Z,14.20
2019-03-22T19:26:14.636Z,14.20
2019-03-22T19:28:46.259Z,14.10
2019-03-22T19:31:17.951Z,14.10
2019-03-22T19:33:49.637Z,14.20
2019-03-22T19:36:21.303Z,14.00
2019-03-22T19:38:52.905Z,14.00
2019-03-22T19:41:24.466Z,14.00
2019-03-22T19:43:56.391Z,14.10
2019-03-22T19:46:28.275Z,14.10
2019-03-22T19:48:59.796Z,14.00
2019-03-22T19:51:32.383Z,13.90
2019-03-22T19:54:04.035Z,13.90
2019-03-22T19:56:35.663Z,13.90
2019-03-22T19:59:07.279Z,13.80
2019-03-22T20:01:38.895Z,13.80
2019-03-22T20:04:10.466Z,13.80
2019-03-22T20:06:43.128Z,13.80
2019-03-22T20:09:15.025Z,13.80
2019-03-22T20:14:19.958Z,13.60
2019-03-22T20:16:51.800Z,13.50
2019-03-22T20:19:24.081Z,13.30
2019-03-22T20:21:55.612Z,13.30
2019-03-22T20:24:27.162Z,13.30
2019-03-22T20:26:59.694Z,13.20
2019-03-22T20:29:31.695Z,13.10
2019-03-22T20:32:03.292Z,13.20
2019-03-22T20:34:34.978Z,13.20
2019-03-22T20:37:06.590Z,13.10
2019-03-22T20:39:38.138Z,13.10
2019-03-22T20:42:09.730Z,13.00
2019-03-22T20:44:41.361Z,12.90
2019-03-22T20:47:12.993Z,12.60
2019-03-22T20:49:46.286Z,12.50
2019-03-22T20:52:17.896Z,12.60
2019-03-22T20:54:49.526Z,12.70
2019-03-22T20:57:21.764Z,12.70
2019-03-22T20:59:53.730Z,12.70
2019-03-22T21:02:25.390Z,12.60
2019-03-22T21:04:57.009Z,12.50
2019-03-22T21:07:28.619Z,12.50
2019-03-22T21:10:00.435Z,12.50
2019-03-22T21:12:34.154Z,12.50
2019-03-22T21:15:06.968Z,12.30
2019-03-22T21:17:38.671Z,12.30
2019-03-22T21:20:11.692Z,12.30
2019-03-22T21:22:43.337Z,12.20
2019-03-22T21:25:15.042Z,12.20
2019-03-22T21:27:46.664Z,12.10
2019-03-22T21:30:18.814Z,11.90
2019-03-22T21:32:50.835Z,11.80
2019-03-22T21:35:23.233Z,11.80
2019-03-22T21:37:54.891Z,11.80
2019-03-22T21:40:26.476Z,11.70
2019-03-22T21:42:58.074Z,11.70
2019-03-22T21:45:29.657Z,11.60
2019-03-22T21:48:02.356Z,11.70
2019-03-22T21:50:33.952Z,11.50
2019-03-22T21:53:05.573Z,11.50
2019-03-22T21:55:37.354Z,11.60
2019-03-22T21:58:08.827Z,11.50
2019-03-22T22:00:40.424Z,11.50
2019-03-22T22:03:12.702Z,11.50
2019-03-22T22:05:48.019Z,11.30
2019-03-22T22:08:17.581Z,11.30
2019-03-22T22:10:58.997Z,11.30
2019-03-22T22:13:23.358Z,11.20
2019-03-22T22:15:55.277Z,11.10
2019-03-22T22:18:26.865Z,11.10
2019-03-22T22:20:58.472Z,11.00
2019-03-22T22:23:30.482Z,10.90
2019-03-22T22:26:02.155Z,11.00
2019-03-22T22:28:33.752Z,10.90
2019-03-22T22:31:05.363Z,10.90
2019-03-22T22:33:36.947Z,10.70
2019-03-22T22:36:08.544Z,10.60
2019-03-22T22:38:40.161Z,10.60
2019-03-22T22:41:11.645Z,10.40
2019-03-22T22:43:43.271Z,10.10
2019-03-22T22:46:15.269Z,10.00
2019-03-22T22:48:46.852Z,9.80
2019-03-22T22:51:18.451Z,9.60
2019-03-22T22:53:50.553Z,9.30
2019-03-22T22:56:22.215Z,9.50
2019-03-22T22:58:53.787Z,9.60
2019-03-22T23:01:25.457Z,9.60
2019-03-22T23:03:57.045Z,9.50
2019-03-22T23:06:28.649Z,9.40
2019-03-22T23:09:00.298Z,9.50
2019-03-22T23:11:32.627Z,9.60
2019-03-22T23:14:04.539Z,9.60
2019-03-22T23:16:36.375Z,9.30
2019-03-22T23:19:08.034Z,9.40
2019-03-22T23:21:39.624Z,9.20
2019-03-22T23:24:11.324Z,9.00
2019-03-22T23:26:43.044Z,9.20
2019-03-22T23:29:14.632Z,9.20
2019-03-22T23:31:49.177Z,9.40
2019-03-22T23:34:20.660Z,9.30
2019-03-22T23:36:52.307Z,9.30
2019-03-22T23:39:23.900Z,9.20
2019-03-22T23:41:55.588Z,9.20
2019-03-22T23:44:27.506Z,9.10
2019-03-22T23:46:59.425Z,9.20
2019-03-22T23:49:31.738Z,9.10
2019-03-22T23:52:03.329Z,9.00
2019-03-22T23:54:36.004Z,9.10
2019-03-22T23:57:07.584Z,9.10
2019-03-22T23:59:39.143Z,9.10
